createdAt,value
2022-12-24T00:01:44.644Z,17.70
2022-12-24T00:04:11.953Z,13.63
2022-12-24T00:06:39.311Z,14.75
2022-12-24T00:09:06.646Z,13.82
2022-12-24T00:11:34.074Z,13.20
2022-12-24T00:14:01.501Z,14.10
2022-12-24T00:16:29.056Z,15.93
2022-12-24T00:18:56.469Z,18.95
2022-12-24T00:21:23.801Z,18.83
2022-12-24T00:23:51.107Z,14.90
2022-12-24T00:26:19.324Z,13.43
2022-12-24T00:28:46.598Z,17.80
2022-12-24T00:31:15.156Z,15.05
2022-12-24T00:33:42.493Z,16.23
2022-12-24T00:36:09.967Z,15.57
2022-12-24T00:38:37.391Z,20.08
2022-12-24T00:41:06.181Z,14.15
2022-12-24T00:43:33.772Z,16.92
2022-12-24T00:46:01.227Z,15.80
2022-12-24T00:48:28.580Z,14.73
2022-12-24T00:50:55.928Z,14.05
2022-12-24T00:53:23.256Z,20.08
2022-12-24T00:55:50.578Z,17.08
2022-12-24T00:58:17.952Z,16.35
2022-12-24T01:00:45.208Z,18.77
2022-12-24T01:03:12.567Z,17.95
2022-12-24T01:05:39.867Z,17.17
2022-12-24T01:08:07.291Z,18.30
2022-12-24T01:10:34.563Z,15.35
2022-12-24T01:13:02.838Z,13.55
2022-12-24T01:15:30.540Z,15.55
2022-12-24T01:17:58.557Z,15.35
2022-12-24T01:20:31.542Z,14.98
2022-12-24T01:22:59.021Z,18.25
2022-12-24T01:25:26.298Z,11.55
2022-12-24T01:27:53.621Z,13.52
2022-12-24T01:30:20.985Z,15.30
2022-12-24T01:32:48.283Z,15.88
2022-12-24T01:35:15.604Z,18.98
2022-12-24T01:37:43.082Z,11.93
2022-12-24T01:40:33.692Z,17.75
2022-12-24T01:43:19.548Z,13.20
2022-12-24T01:45:55.686Z,13.88
2022-12-24T01:48:25.983Z,15.18
2022-12-24T01:50:56.049Z,14.00
2022-12-24T01:53:23.400Z,15.65
2022-12-24T01:55:51.476Z,19.88
2022-12-24T01:58:19.123Z,20.00
2022-12-24T02:00:46.493Z,13.50
2022-12-24T02:03:13.894Z,16.38
2022-12-24T02:05:48.976Z,12.30
2022-12-24T02:08:16.999Z,11.38
2022-12-24T02:10:44.899Z,17.23
2022-12-24T02:13:13.107Z,17.65
2022-12-24T02:15:50.360Z,15.35
2022-12-24T02:18:22.806Z,19.00
2022-12-24T02:21:08.692Z,16.63
2022-12-24T02:23:36.019Z,20.75
2022-12-24T02:26:12.369Z,14.93
2022-12-24T02:28:42.749Z,14.23
2022-12-24T02:31:15.343Z,18.77
2022-12-24T02:33:46.261Z,22.08
2022-12-24T02:36:24.290Z,20.45
2022-12-24T02:38:56.070Z,19.42
2022-12-24T02:41:25.552Z,19.85
2022-12-24T02:43:54.071Z,18.05
2022-12-24T02:46:27.028Z,17.70
2022-12-24T02:48:54.589Z,16.98
2022-12-24T02:51:25.717Z,16.52
2022-12-24T02:53:53.117Z,13.88
2022-12-24T02:56:39.109Z,14.75
2022-12-24T02:59:21.594Z,17.20
2022-12-24T03:01:52.075Z,16.42
2022-12-24T03:04:39.429Z,14.15
2022-12-24T03:07:09.935Z,15.93
2022-12-24T03:10:00.289Z,12.93
2022-12-24T03:12:31.308Z,13.15
2022-12-24T03:14:59.302Z,10.88
2022-12-24T03:17:27.689Z,14.00
2022-12-24T03:19:56.396Z,15.13
2022-12-24T03:22:24.009Z,12.63
2022-12-24T03:24:51.314Z,9.93
2022-12-24T03:27:18.795Z,9.18
2022-12-24T03:29:47.239Z,9.85
2022-12-24T03:32:14.524Z,13.45
2022-12-24T03:34:41.813Z,7.57
2022-12-24T03:37:09.081Z,7.22
2022-12-24T03:39:36.419Z,7.85
2022-12-24T03:42:03.744Z,11.02
2022-12-24T03:44:31.009Z,11.23
2022-12-24T03:46:58.346Z,10.85
2022-12-24T03:49:25.606Z,9.43
2022-12-24T03:51:53.122Z,8.27
2022-12-24T03:54:20.390Z,12.20
2022-12-24T03:56:47.685Z,7.60
2022-12-24T03:59:15.005Z,10.52
2022-12-24T04:01:42.441Z,7.47
2022-12-24T04:04:09.822Z,8.02
2022-12-24T04:06:37.087Z,7.13
2022-12-24T04:09:05.442Z,10.00
2022-12-24T04:11:33.130Z,8.55
2022-12-24T04:14:00.591Z,7.22
2022-12-24T04:16:27.873Z,7.10
2022-12-24T04:18:55.271Z,9.35
2022-12-24T04:21:22.568Z,7.88
2022-12-24T04:23:49.943Z,10.10
2022-12-24T04:26:17.475Z,7.30
2022-12-24T04:28:45.112Z,7.90
2022-12-24T04:31:14.296Z,4.78
2022-12-24T04:33:41.852Z,4.82
2022-12-24T04:36:09.784Z,5.85
2022-12-24T04:38:37.112Z,7.68
2022-12-24T04:41:23.202Z,10.15
2022-12-24T04:43:52.114Z,6.07
2022-12-24T04:46:21.771Z,7.00
2022-12-24T04:48:49.903Z,6.78
2022-12-24T04:51:17.865Z,7.03
2022-12-24T04:53:45.584Z,6.13
2022-12-24T04:56:13.773Z,5.30
2022-12-24T04:58:41.055Z,4.10
2022-12-24T05:01:10.086Z,7.97
2022-12-24T05:03:37.461Z,4.97
2022-12-24T05:06:09.345Z,11.43
2022-12-24T05:08:36.693Z,15.45
2022-12-24T05:11:04.295Z,5.90
2022-12-24T05:13:39.149Z,12.48
2022-12-24T05:16:12.241Z,17.38
2022-12-24T05:18:39.664Z,9.35
2022-12-24T05:21:22.226Z,28.40
2022-12-24T05:24:08.347Z,5.55
2022-12-24T05:26:35.576Z,11.18
2022-12-24T05:29:03.608Z,7.43
2022-12-24T05:31:31.860Z,5.30
2022-12-24T05:33:59.141Z,4.03
2022-12-24T05:36:26.479Z,6.57
2022-12-24T05:38:53.835Z,4.35
2022-12-24T05:41:21.167Z,6.50
2022-12-24T05:43:48.421Z,15.32
2022-12-24T05:46:16.985Z,4.72
2022-12-24T05:48:44.340Z,5.15
2022-12-24T05:51:13.355Z,6.88
2022-12-24T05:53:41.149Z,6.95
2022-12-24T05:56:16.615Z,8.80
2022-12-24T05:58:44.536Z,9.75
2022-12-24T06:01:11.894Z,8.80
2022-12-24T06:03:39.377Z,9.32
2022-12-24T06:06:07.827Z,10.57
2022-12-24T06:08:35.855Z,7.47
2022-12-24T06:11:03.918Z,8.00
2022-12-24T06:13:31.765Z,12.20
2022-12-24T06:16:00.199Z,10.85
2022-12-24T06:18:27.607Z,11.77
2022-12-24T06:20:55.582Z,13.88
2022-12-24T06:23:24.018Z,14.75
2022-12-24T06:25:51.858Z,9.68
2022-12-24T06:28:19.608Z,9.95
2022-12-24T06:30:47.716Z,13.80
2022-12-24T06:33:15.510Z,10.20
2022-12-24T06:35:43.064Z,11.63
2022-12-24T06:38:10.342Z,41.83
2022-12-24T06:40:39.507Z,65.22
2022-12-24T06:43:06.893Z,26.25
2022-12-24T06:45:34.139Z,11.57
2022-12-24T06:48:01.716Z,9.07
2022-12-24T06:50:29.031Z,10.27
2022-12-24T06:52:56.590Z,10.77
2022-12-24T06:55:23.901Z,10.02
2022-12-24T06:57:51.173Z,9.80
2022-12-24T07:00:18.604Z,8.27
2022-12-24T07:02:46.000Z,13.77
2022-12-24T07:05:13.702Z,8.80
2022-12-24T07:07:41.824Z,15.77
2022-12-24T07:10:09.677Z,12.05
2022-12-24T07:12:36.924Z,21.50
2022-12-24T07:15:04.507Z,18.15
2022-12-24T07:17:31.826Z,8.90
2022-12-24T07:19:59.132Z,17.33
2022-12-24T07:22:26.424Z,13.07
2022-12-24T07:24:53.720Z,11.80
2022-12-24T07:27:20.986Z,13.90
2022-12-24T07:29:48.486Z,13.98
2022-12-24T07:32:15.777Z,12.38
2022-12-24T07:34:43.088Z,21.42
2022-12-24T07:37:10.353Z,15.00
2022-12-24T07:39:37.624Z,17.55
2022-12-24T07:42:08.143Z,20.45
2022-12-24T07:44:35.932Z,27.17
2022-12-24T07:47:03.314Z,24.85
2022-12-24T07:49:30.626Z,31.25
2022-12-24T07:51:57.969Z,29.50
2022-12-24T07:54:25.317Z,24.73
2022-12-24T07:56:52.649Z,30.88
2022-12-24T07:59:19.955Z,27.70
2022-12-24T08:01:47.619Z,27.05
2022-12-24T08:04:15.001Z,30.20
2022-12-24T08:06:42.320Z,18.80
2022-12-24T08:09:09.599Z,13.15
2022-12-24T08:11:36.913Z,12.25
2022-12-24T08:14:04.190Z,13.00
2022-12-24T08:16:31.661Z,16.65
2022-12-24T08:18:59.103Z,16.08
2022-12-24T08:21:26.347Z,22.02
2022-12-24T08:23:53.784Z,32.67
2022-12-24T08:26:21.049Z,7.47
2022-12-24T08:28:48.500Z,6.65
2022-12-24T08:31:16.074Z,21.30
2022-12-24T08:33:43.451Z,7.55
2022-12-24T08:36:10.822Z,10.23
2022-12-24T08:38:38.165Z,11.70
2022-12-24T08:41:05.572Z,20.77
2022-12-24T08:43:32.891Z,24.13
2022-12-24T08:46:03.734Z,64.75
2022-12-24T08:48:31.513Z,55.15
2022-12-24T08:50:59.058Z,29.63
2022-12-24T08:53:26.381Z,43.88
2022-12-24T08:55:56.236Z,56.70
2022-12-24T08:58:23.850Z,38.60
2022-12-24T09:00:51.169Z,36.42
2022-12-24T09:03:25.097Z,44.50
2022-12-24T09:05:54.852Z,37.28
2022-12-24T09:08:22.294Z,34.97
2022-12-24T09:10:49.632Z,30.15
2022-12-24T09:13:16.909Z,25.65
2022-12-24T09:15:44.166Z,60.63
2022-12-24T09:18:11.517Z,24.75
2022-12-24T09:20:42.745Z,9.45
2022-12-24T09:23:13.053Z,21.35
2022-12-24T09:25:44.087Z,13.30
2022-12-24T09:28:11.431Z,17.65
2022-12-24T09:30:38.727Z,9.95
2022-12-24T09:33:06.058Z,8.23
2022-12-24T09:35:33.352Z,9.85
2022-12-24T09:38:03.512Z,12.88
2022-12-24T09:40:40.853Z,13.25
2022-12-24T09:43:27.127Z,11.90
2022-12-24T09:46:06.957Z,13.60
2022-12-24T09:48:39.323Z,19.55
2022-12-24T09:51:10.722Z,18.10
2022-12-24T09:53:38.035Z,18.17
2022-12-24T09:56:08.713Z,20.75
2022-12-24T09:58:38.333Z,23.23
2022-12-24T10:01:05.862Z,23.20
2022-12-24T10:03:33.538Z,23.58
2022-12-24T10:06:14.011Z,22.20
2022-12-24T10:09:00.158Z,19.55
2022-12-24T10:11:28.582Z,19.45
2022-12-24T10:14:01.927Z,17.63
2022-12-24T10:16:29.252Z,16.83
2022-12-24T10:19:01.127Z,16.38
2022-12-24T10:21:47.295Z,19.85
2022-12-24T10:24:20.699Z,11.77
2022-12-24T10:26:57.369Z,6.50
2022-12-24T10:29:28.311Z,8.77
2022-12-24T10:32:10.897Z,5.53
2022-12-24T10:34:50.190Z,9.23
2022-12-24T10:37:21.064Z,10.90
2022-12-24T10:39:48.329Z,5.72
2022-12-24T10:42:16.235Z,4.50
2022-12-24T10:44:46.705Z,4.78
2022-12-24T10:47:14.562Z,4.75
2022-12-24T10:49:55.062Z,3.88
2022-12-24T10:52:23.278Z,2.70
2022-12-24T10:55:09.327Z,6.05
2022-12-24T10:57:36.774Z,5.55
2022-12-24T11:00:04.631Z,2.40
2022-12-24T11:02:32.040Z,7.15
2022-12-24T11:05:00.322Z,5.15
2022-12-24T11:07:28.786Z,2.05
2022-12-24T11:10:03.540Z,5.45
2022-12-24T11:12:32.279Z,2.47
2022-12-24T11:15:06.418Z,2.75
2022-12-24T11:17:34.297Z,2.47
2022-12-24T11:20:04.166Z,4.00
2022-12-24T11:22:32.657Z,2.72
2022-12-24T11:25:19.425Z,2.78
2022-12-24T11:27:50.662Z,2.53
2022-12-24T11:30:18.098Z,2.60
2022-12-24T11:32:46.602Z,4.03
2022-12-24T11:35:19.237Z,2.78
2022-12-24T11:37:46.521Z,3.13
2022-12-24T11:40:23.940Z,2.63
2022-12-24T11:42:54.250Z,2.83
2022-12-24T11:45:23.907Z,3.63
2022-12-24T11:47:51.649Z,3.15
2022-12-24T11:50:38.198Z,4.93
2022-12-24T11:53:05.850Z,4.03
2022-12-24T11:55:42.523Z,4.53
2022-12-24T11:58:25.046Z,3.88
2022-12-24T12:00:53.625Z,6.45
2022-12-24T12:03:26.859Z,5.78
2022-12-24T12:05:56.317Z,3.58
2022-12-24T12:08:24.208Z,5.82
2022-12-24T12:10:53.332Z,6.00
2022-12-24T12:13:24.170Z,6.07
2022-12-24T12:16:07.383Z,5.70
2022-12-24T12:18:42.322Z,6.40
2022-12-24T12:21:18.264Z,6.50
2022-12-24T12:23:48.343Z,7.50
2022-12-24T12:26:23.216Z,7.47
2022-12-24T12:28:50.594Z,8.45
2022-12-24T12:31:28.764Z,8.90
2022-12-24T12:33:58.587Z,9.70
2022-12-24T12:36:34.357Z,11.57
2022-12-24T12:39:01.740Z,6.68
2022-12-24T12:41:41.155Z,8.45
2022-12-24T12:44:27.211Z,9.85
2022-12-24T12:47:00.660Z,9.13
2022-12-24T12:49:37.281Z,11.68
2022-12-24T12:52:17.139Z,16.02
2022-12-24T12:54:47.456Z,13.45
2022-12-24T12:57:16.368Z,16.63
2022-12-24T12:59:55.685Z,18.40
2022-12-24T13:02:32.107Z,16.45
2022-12-24T13:05:02.407Z,18.38
2022-12-24T13:07:44.414Z,27.27
2022-12-24T13:10:48.878Z,25.60
2022-12-24T13:13:30.544Z,24.52
2022-12-24T13:16:33.479Z,22.20
2022-12-24T13:19:15.840Z,17.27
2022-12-24T13:21:44.476Z,21.88
2022-12-24T13:24:14.733Z,19.63
2022-12-24T13:26:42.462Z,19.52
2022-12-24T13:29:38.987Z,27.88
2022-12-24T13:32:27.327Z,19.92
2022-12-24T13:35:01.312Z,28.25
2022-12-24T13:37:28.643Z,24.77
2022-12-24T13:40:02.206Z,29.17
2022-12-24T13:42:47.235Z,19.60
2022-12-24T13:45:32.918Z,21.85
2022-12-24T13:48:06.531Z,26.02
2022-12-24T13:50:38.552Z,22.30
2022-12-24T13:53:06.611Z,21.50
2022-12-24T13:55:34.370Z,18.52
2022-12-24T13:58:06.351Z,16.40
2022-12-24T14:00:44.537Z,19.13
2022-12-24T14:03:15.085Z,20.75
2022-12-24T14:05:46.604Z,19.88
2022-12-24T14:08:15.851Z,18.05
2022-12-24T14:10:44.923Z,18.25
2022-12-24T14:13:47.455Z,22.15
2022-12-24T14:16:20.803Z,16.48
2022-12-24T14:19:00.394Z,17.85
2022-12-24T14:21:30.518Z,23.73
2022-12-24T14:24:02.922Z,21.70
2022-12-24T14:26:36.121Z,17.50
2022-12-24T14:29:24.512Z,18.98
2022-12-24T14:31:56.044Z,22.33
2022-12-24T14:34:23.715Z,20.25
2022-12-24T14:36:52.307Z,26.17
2022-12-24T14:39:22.634Z,18.85
2022-12-24T14:42:08.168Z,19.92
2022-12-24T14:44:47.182Z,17.67
2022-12-24T14:47:14.447Z,20.67
2022-12-24T14:50:10.600Z,31.35
2022-12-24T14:53:04.627Z,17.77
2022-12-24T14:55:36.480Z,18.23
2022-12-24T14:58:18.379Z,12.80
2022-12-24T15:00:45.725Z,16.02
2022-12-24T15:03:17.049Z,20.95
2022-12-24T15:05:45.019Z,21.42
2022-12-24T15:08:16.949Z,26.88
2022-12-24T15:10:45.007Z,14.40
2022-12-24T15:13:21.232Z,18.88
2022-12-24T15:15:52.474Z,13.63
2022-12-24T15:18:22.465Z,13.50
2022-12-24T15:20:51.882Z,22.00
2022-12-24T15:23:20.683Z,17.88
2022-12-24T15:25:48.138Z,17.95
2022-12-24T15:28:19.669Z,14.93
2022-12-24T15:30:47.365Z,26.55
2022-12-24T15:33:14.724Z,18.65
2022-12-24T15:35:45.009Z,30.88
2022-12-24T15:38:30.725Z,18.70
2022-12-24T15:40:58.479Z,22.75
2022-12-24T15:43:26.025Z,16.98
2022-12-24T15:45:53.502Z,22.80
2022-12-24T15:48:23.809Z,29.55
2022-12-24T15:50:53.212Z,30.10
2022-12-24T15:53:25.765Z,44.97
2022-12-24T15:56:12.744Z,38.53
2022-12-24T15:58:41.447Z,110.53
2022-12-24T16:01:17.684Z,94.30
2022-12-24T16:03:51.249Z,203.13
2022-12-24T16:06:18.639Z,141.93
2022-12-24T16:08:46.058Z,77.53
2022-12-24T16:11:13.667Z,45.45
2022-12-24T16:13:45.080Z,39.17
2022-12-24T16:16:13.727Z,49.38
2022-12-24T16:18:49.981Z,78.18
2022-12-24T16:21:36.956Z,96.07
2022-12-24T16:24:24.835Z,113.90
2022-12-24T16:26:52.542Z,33.22
2022-12-24T16:29:20.041Z,148.00
2022-12-24T16:31:51.045Z,37.78
2022-12-24T16:34:18.613Z,53.20
2022-12-24T16:36:46.914Z,31.90
2022-12-24T16:39:24.469Z,22.73
2022-12-24T16:42:14.529Z,10.40
2022-12-24T16:44:42.184Z,19.98
2022-12-24T16:47:15.687Z,23.25
2022-12-24T16:49:42.944Z,18.30
2022-12-24T16:52:16.306Z,28.02
2022-12-24T16:54:43.554Z,20.73
2022-12-24T16:57:11.347Z,16.63
2022-12-24T16:59:38.887Z,16.20
2022-12-24T17:02:12.432Z,15.13
2022-12-24T17:04:41.518Z,12.15
2022-12-24T17:07:08.911Z,13.55
2022-12-24T17:09:36.217Z,13.93
2022-12-24T17:12:03.635Z,14.07
2022-12-24T17:14:30.974Z,13.57
2022-12-24T17:16:58.316Z,15.32
2022-12-24T17:19:25.663Z,12.95
2022-12-24T17:21:52.944Z,13.52
2022-12-24T17:24:20.240Z,11.75
2022-12-24T17:26:47.568Z,14.02
2022-12-24T17:29:14.826Z,14.27
2022-12-24T17:31:43.146Z,16.38
2022-12-24T17:34:10.551Z,13.48
2022-12-24T17:36:37.949Z,16.65
2022-12-24T17:39:05.326Z,14.18
2022-12-24T17:41:32.627Z,11.93
2022-12-24T17:44:00.037Z,15.55
2022-12-24T17:46:27.374Z,13.73
2022-12-24T17:48:55.951Z,12.52
2022-12-24T17:51:23.726Z,11.60
2022-12-24T17:53:51.247Z,12.75
2022-12-24T17:56:18.543Z,12.77
2022-12-24T17:58:47.157Z,10.60
2022-12-24T18:01:15.513Z,9.70
2022-12-24T18:03:43.118Z,12.23
2022-12-24T18:06:11.274Z,11.80
2022-12-24T18:08:39.207Z,10.05
2022-12-24T18:11:20.843Z,10.32
2022-12-24T18:13:48.754Z,10.10
2022-12-24T18:16:17.619Z,11.82
2022-12-24T18:18:45.319Z,12.63
2022-12-24T18:21:12.615Z,12.23
2022-12-24T18:23:43.039Z,11.73
2022-12-24T18:26:10.770Z,10.18
2022-12-24T18:28:38.114Z,11.57
2022-12-24T18:31:06.975Z,12.90
2022-12-24T18:33:35.025Z,11.77
2022-12-24T18:36:02.480Z,13.52
2022-12-24T18:38:29.765Z,13.25
2022-12-24T18:41:02.303Z,11.60
2022-12-24T18:43:29.551Z,15.95
2022-12-24T18:45:56.890Z,13.77
2022-12-24T18:48:24.138Z,14.43
2022-12-24T18:50:55.714Z,13.70
2022-12-24T18:53:22.990Z,14.43
2022-12-24T18:55:50.321Z,18.15
2022-12-24T18:58:17.731Z,18.00
2022-12-24T19:00:45.321Z,17.38
2022-12-24T19:03:15.922Z,18.67
2022-12-24T19:05:43.994Z,20.38
2022-12-24T19:08:46.959Z,19.50
2022-12-24T19:10:58.624Z,21.77
2022-12-24T19:13:25.901Z,25.05
2022-12-24T19:15:53.238Z,27.60
2022-12-24T19:18:20.624Z,26.85
2022-12-24T19:20:47.976Z,25.02
2022-12-24T19:23:15.366Z,25.38
2022-12-24T19:25:42.740Z,21.77
2022-12-24T19:28:10.055Z,22.77
2022-12-24T19:30:37.763Z,28.30
2022-12-24T19:33:05.118Z,23.40
2022-12-24T19:35:32.702Z,23.13
2022-12-24T19:37:59.986Z,25.85
2022-12-24T19:40:27.719Z,31.65
2022-12-24T19:42:55.090Z,29.30
2022-12-24T19:45:23.393Z,25.65
2022-12-24T19:47:51.900Z,33.50
2022-12-24T19:50:19.277Z,32.03
2022-12-24T19:52:46.603Z,33.08
2022-12-24T19:55:15.158Z,43.17
2022-12-24T19:57:42.949Z,40.58
2022-12-24T20:00:10.697Z,45.80
2022-12-24T20:02:38.165Z,47.05
2022-12-24T20:05:05.792Z,54.03
2022-12-24T20:07:33.167Z,47.85
2022-12-24T20:10:00.431Z,48.70
2022-12-24T20:12:27.816Z,45.03
2022-12-24T20:14:56.461Z,50.65
2022-12-24T20:17:23.812Z,54.60
2022-12-24T20:19:51.184Z,43.17
2022-12-24T20:22:18.551Z,45.33
2022-12-24T20:24:45.870Z,39.53
2022-12-24T20:27:13.197Z,40.70
2022-12-24T20:29:40.677Z,39.35
2022-12-24T20:32:08.157Z,41.28
2022-12-24T20:34:36.736Z,33.53
2022-12-24T20:37:04.365Z,40.28
2022-12-24T20:39:31.650Z,33.00
2022-12-24T20:42:01.028Z,28.70
2022-12-24T20:44:28.290Z,32.83
2022-12-24T20:46:55.592Z,31.02
2022-12-24T20:49:22.973Z,32.00
2022-12-24T20:51:50.276Z,39.70
2022-12-24T20:54:17.636Z,39.03
2022-12-24T20:56:44.922Z,33.08
2022-12-24T20:59:25.799Z,24.60
2022-12-24T21:01:53.498Z,33.85
2022-12-24T21:04:21.045Z,30.40
2022-12-24T21:06:48.319Z,39.55
2022-12-24T21:09:15.684Z,41.22
2022-12-24T21:11:52.052Z,44.53
2022-12-24T21:14:23.970Z,35.67
2022-12-24T21:16:52.045Z,33.92
2022-12-24T21:19:20.619Z,36.70
2022-12-24T21:21:48.114Z,34.17
2022-12-24T21:24:15.640Z,40.10
2022-12-24T21:26:43.008Z,36.33
2022-12-24T21:29:10.317Z,39.15
2022-12-24T21:31:38.001Z,43.30
2022-12-24T21:34:05.344Z,34.72
2022-12-24T21:36:32.728Z,40.42
2022-12-24T21:39:00.155Z,33.97
2022-12-24T21:41:28.153Z,42.65
2022-12-24T21:43:55.475Z,38.55
2022-12-24T21:46:25.282Z,39.35
2022-12-24T21:49:12.248Z,40.05
2022-12-24T21:51:40.028Z,32.72
2022-12-24T21:54:26.298Z,32.75
2022-12-24T21:57:13.472Z,27.02
2022-12-24T21:59:40.817Z,25.17
2022-12-24T22:02:08.697Z,22.85
2022-12-24T22:04:36.158Z,26.50
2022-12-24T22:07:22.295Z,25.73
2022-12-24T22:10:08.353Z,26.73
2022-12-24T22:12:36.052Z,24.35
2022-12-24T22:15:05.588Z,19.27
2022-12-24T22:17:32.917Z,21.95
2022-12-24T22:20:00.311Z,21.65
2022-12-24T22:22:27.602Z,19.88
2022-12-24T22:24:54.887Z,19.13
2022-12-24T22:27:22.241Z,18.15
2022-12-24T22:29:49.540Z,19.35
2022-12-24T22:32:16.839Z,24.13
2022-12-24T22:34:44.175Z,19.65
2022-12-24T22:37:11.712Z,20.67
2022-12-24T22:39:39.285Z,24.25
2022-12-24T22:42:06.595Z,22.17
2022-12-24T22:44:33.918Z,28.02
2022-12-24T22:47:01.350Z,29.95
2022-12-24T22:49:28.693Z,30.10
2022-12-24T22:51:59.400Z,27.27
2022-12-24T22:54:26.738Z,26.42
2022-12-24T22:56:54.038Z,28.30
2022-12-24T22:59:21.364Z,23.80
2022-12-24T23:01:49.071Z,22.77
2022-12-24T23:04:16.548Z,25.45
2022-12-24T23:06:44.749Z,28.50
2022-12-24T23:09:13.376Z,26.08
2022-12-24T23:11:41.289Z,27.77
2022-12-24T23:14:27.666Z,27.38
2022-12-24T23:16:54.953Z,28.30
2022-12-24T23:19:22.205Z,29.73
2022-12-24T23:21:49.531Z,32.20
2022-12-24T23:24:16.786Z,29.25
2022-12-24T23:26:44.081Z,30.65
2022-12-24T23:29:11.410Z,28.65
2022-12-24T23:31:38.732Z,25.92
2022-12-24T23:34:06.063Z,26.27
2022-12-24T23:36:33.320Z,26.30
2022-12-24T23:39:00.714Z,28.38
2022-12-24T23:41:27.999Z,27.23
2022-12-24T23:43:55.375Z,32.38
2022-12-24T23:46:22.715Z,33.05
2022-12-24T23:48:54.052Z,30.65
2022-12-24T23:51:23.703Z,31.58
2022-12-24T23:53:53.746Z,28.80
2022-12-24T23:56:21.546Z,25.95
2022-12-24T23:58:49.210Z,31.70
